createdAt,value
2019-01-24T00:00:33.372Z,74.70
2019-01-24T00:02:59.728Z,75.00
2019-01-24T00:05:25.871Z,75.10
2019-01-24T00:07:51.954Z,75.10
2019-01-24T00:10:17.995Z,75.30
2019-01-24T00:12:44.335Z,75.00
2019-01-24T00:15:10.803Z,75.00
2019-01-24T00:17:36.854Z,75.30
2019-01-24T00:20:12.835Z,76.40
2019-01-24T00:22:38.875Z,76.20
2019-01-24T00:25:07.611Z,76.00
2019-01-24T00:27:33.668Z,76.40
2019-01-24T00:29:59.708Z,75.80
2019-01-24T00:32:25.754Z,76.20
2019-01-24T00:34:51.805Z,76.40
2019-01-24T00:37:17.874Z,76.50
2019-01-24T00:39:43.918Z,76.20
2019-01-24T00:42:10.064Z,75.80
2019-01-24T00:44:36.135Z,76.20
2019-01-24T00:47:02.591Z,76.00
2019-01-24T00:49:28.730Z,76.40
2019-01-24T00:51:54.783Z,75.80
2019-01-24T00:54:20.842Z,76.10
2019-01-24T00:56:46.883Z,76.00
2019-01-24T00:59:13.218Z,75.70
2019-01-24T01:01:39.263Z,75.90
2019-01-24T01:04:05.429Z,75.80
2019-01-24T01:06:31.471Z,75.50
2019-01-24T01:08:57.819Z,75.60
2019-01-24T01:11:23.853Z,75.50
2019-01-24T01:13:49.894Z,75.20
2019-01-24T01:16:15.971Z,75.20
2019-01-24T01:18:42.022Z,74.70
2019-01-24T01:21:08.347Z,74.20
2019-01-24T01:23:34.417Z,74.70
2019-01-24T01:26:00.460Z,74.70
2019-01-24T01:28:26.832Z,74.10
2019-01-24T01:30:52.890Z,73.90
2019-01-24T01:33:19.280Z,74.90
2019-01-24T01:35:45.326Z,75.40
2019-01-24T01:38:11.368Z,75.50
2019-01-24T01:40:37.407Z,75.40
2019-01-24T01:43:03.555Z,75.20
2019-01-24T01:45:29.621Z,75.00
2019-01-24T01:47:55.665Z,74.40
2019-01-24T01:50:23.218Z,74.40
2019-01-24T01:52:49.276Z,74.50
2019-01-24T01:55:15.524Z,74.50
2019-01-24T01:57:41.568Z,74.70
2019-01-24T02:00:17.202Z,74.50
2019-01-24T02:02:43.263Z,74.70
2019-01-24T02:05:10.501Z,74.80
2019-01-24T02:07:36.772Z,74.80
2019-01-24T02:10:06.632Z,74.70
2019-01-24T02:12:32.675Z,74.80
2019-01-24T02:14:58.963Z,74.90
2019-01-24T02:17:24.991Z,74.80
2019-01-24T02:19:51.044Z,74.50
2019-01-24T02:22:17.448Z,75.00
2019-01-24T02:24:43.496Z,75.00
2019-01-24T02:27:09.811Z,75.50
2019-01-24T02:29:35.886Z,75.00
2019-01-24T02:32:01.927Z,75.10
2019-01-24T02:34:27.971Z,74.70
2019-01-24T02:36:54.245Z,74.60
2019-01-24T02:39:20.282Z,74.50
2019-01-24T02:41:46.328Z,74.50
2019-01-24T02:44:12.416Z,74.30
2019-01-24T02:46:38.453Z,74.30
2019-01-24T02:49:04.493Z,74.50
2019-01-24T02:51:30.574Z,74.50
2019-01-24T02:53:56.609Z,74.60
2019-01-24T02:56:22.660Z,74.60
2019-01-24T02:58:48.722Z,74.40
2019-01-24T03:01:14.760Z,74.30
2019-01-24T03:03:40.835Z,74.30
2019-01-24T03:06:07.035Z,74.50
2019-01-24T03:08:33.174Z,74.70
2019-01-24T03:10:59.219Z,74.90
2019-01-24T03:13:25.286Z,74.70
2019-01-24T03:15:51.596Z,74.60
2019-01-24T03:18:17.660Z,74.70
2019-01-24T03:20:43.728Z,74.60
2019-01-24T03:23:09.767Z,74.70
2019-01-24T03:25:35.814Z,74.80
2019-01-24T03:28:02.217Z,75.00
2019-01-24T03:30:28.261Z,74.80
2019-01-24T03:32:54.332Z,74.60
2019-01-24T03:35:23.126Z,74.60
2019-01-24T03:37:49.345Z,74.40
2019-01-24T03:40:15.691Z,74.30
2019-01-24T03:42:41.764Z,74.50
2019-01-24T03:45:10.513Z,74.50
2019-01-24T03:47:36.555Z,74.50
2019-01-24T03:50:05.817Z,74.50
2019-01-24T03:52:31.863Z,74.70
2019-01-24T03:54:57.909Z,74.40
2019-01-24T03:57:23.980Z,74.10
2019-01-24T03:59:50.040Z,74.20
2019-01-24T04:02:16.075Z,74.20
2019-01-24T04:04:42.163Z,74.40
2019-01-24T04:07:08.231Z,74.30
2019-01-24T04:09:34.283Z,73.90
2019-01-24T04:12:00.342Z,73.90
2019-01-24T04:14:26.413Z,73.80
2019-01-24T04:16:52.711Z,74.00
2019-01-24T04:19:18.863Z,74.00
2019-01-24T04:21:45.006Z,74.00
2019-01-24T04:24:11.060Z,73.90
2019-01-24T04:26:37.103Z,74.50
2019-01-24T04:29:03.164Z,74.40
2019-01-24T04:31:29.214Z,74.40
2019-01-24T04:33:55.263Z,74.50
2019-01-24T04:36:21.339Z,74.40
2019-01-24T04:38:47.640Z,74.10
2019-01-24T04:41:13.677Z,73.70
2019-01-24T04:43:39.749Z,73.70
2019-01-24T04:46:05.786Z,73.30
2019-01-24T04:48:31.824Z,72.80
2019-01-24T04:50:57.887Z,72.90
2019-01-24T04:53:23.943Z,73.40
2019-01-24T04:55:49.976Z,73.40
2019-01-24T04:58:16.036Z,73.60
2019-01-24T05:00:42.168Z,73.60
2019-01-24T05:03:08.212Z,74.70
2019-01-24T05:05:34.301Z,74.20
2019-01-24T05:08:00.347Z,73.80
2019-01-24T05:10:26.497Z,73.80
2019-01-24T05:12:52.937Z,73.90
2019-01-24T05:15:19.031Z,73.30
2019-01-24T05:17:45.072Z,73.80
2019-01-24T05:20:12.467Z,73.70
2019-01-24T05:22:38.510Z,74.30
2019-01-24T05:25:08.059Z,73.70
2019-01-24T05:27:34.443Z,73.90
2019-01-24T05:30:00.510Z,73.70
2019-01-24T05:32:26.555Z,74.00
2019-01-24T05:34:52.931Z,74.10
2019-01-24T05:37:18.968Z,74.00
2019-01-24T05:39:45.049Z,73.90
2019-01-24T05:42:11.155Z,73.60
2019-01-24T05:44:37.203Z,73.80
2019-01-24T05:47:03.388Z,73.40
2019-01-24T05:49:29.424Z,73.10
2019-01-24T05:51:55.501Z,74.20
2019-01-24T05:54:21.928Z,74.40
2019-01-24T05:56:48.259Z,74.30
2019-01-24T05:59:14.392Z,73.40
2019-01-24T06:01:40.943Z,73.70
2019-01-24T06:04:06.982Z,74.40
2019-01-24T06:06:33.371Z,74.10
2019-01-24T06:08:59.438Z,74.60
2019-01-24T06:11:25.480Z,74.30
2019-01-24T06:13:51.519Z,74.10
2019-01-24T06:16:17.587Z,74.40
2019-01-24T06:18:43.672Z,74.30
2019-01-24T06:21:29.624Z,74.10
2019-01-24T06:23:55.692Z,74.30
2019-01-24T06:26:22.025Z,74.00
2019-01-24T06:28:48.120Z,73.90
2019-01-24T06:31:14.156Z,74.00
2019-01-24T06:33:40.509Z,73.90
2019-01-24T06:36:06.559Z,73.40
2019-01-24T06:38:32.616Z,73.80
2019-01-24T06:40:58.655Z,73.40
2019-01-24T06:43:25.004Z,73.30
2019-01-24T06:45:51.060Z,73.40
2019-01-24T06:48:17.095Z,73.50
2019-01-24T06:50:43.135Z,73.50
2019-01-24T06:53:09.205Z,73.50
2019-01-24T06:55:35.244Z,73.60
2019-01-24T06:58:01.281Z,73.80
2019-01-24T07:00:27.339Z,74.10
2019-01-24T07:02:53.380Z,73.80
2019-01-24T07:05:19.418Z,74.10
2019-01-24T07:07:45.582Z,74.70
2019-01-24T07:10:13.821Z,74.60
2019-01-24T07:12:40.055Z,74.20
2019-01-24T07:15:09.692Z,73.90
2019-01-24T07:17:35.855Z,73.90
2019-01-24T07:20:05.115Z,73.90
2019-01-24T07:22:31.203Z,74.30
2019-01-24T07:24:57.239Z,74.40
2019-01-24T07:27:23.271Z,74.30
2019-01-24T07:29:49.339Z,73.90
2019-01-24T07:32:15.387Z,73.60
2019-01-24T07:34:41.429Z,74.10
2019-01-24T07:37:07.479Z,73.90
2019-01-24T07:39:33.540Z,74.10
2019-01-24T07:41:59.589Z,73.70
2019-01-24T07:44:26.029Z,73.90
2019-01-24T07:46:52.117Z,73.70
2019-01-24T07:49:18.144Z,73.80
2019-01-24T07:51:44.507Z,74.00
2019-01-24T07:54:10.568Z,74.10
2019-01-24T07:56:36.859Z,74.00
2019-01-24T07:59:03.100Z,74.10
2019-01-24T08:01:29.200Z,74.90
2019-01-24T08:03:55.336Z,74.60
2019-01-24T08:06:21.372Z,74.30
2019-01-24T08:08:47.463Z,74.00
2019-01-24T08:11:13.811Z,73.90
2019-01-24T08:13:39.855Z,74.30
2019-01-24T08:16:05.906Z,74.20
2019-01-24T08:18:32.296Z,74.60
2019-01-24T08:20:58.328Z,74.10
2019-01-24T08:23:24.647Z,74.60
2019-01-24T08:25:50.716Z,73.90
2019-01-24T08:28:16.761Z,73.80
2019-01-24T08:30:42.803Z,73.70
2019-01-24T08:33:08.870Z,73.90
2019-01-24T08:35:34.922Z,73.90
2019-01-24T08:38:01.709Z,74.10
2019-01-24T08:40:27.772Z,74.10
2019-01-24T08:42:53.828Z,74.00
2019-01-24T08:45:19.968Z,74.00
2019-01-24T08:47:46.341Z,74.10
2019-01-24T08:50:18.945Z,73.80
2019-01-24T08:52:45.183Z,73.80
2019-01-24T08:55:14.439Z,73.60
2019-01-24T08:57:40.479Z,73.70
2019-01-24T09:00:10.324Z,73.90
2019-01-24T09:02:36.399Z,73.90
2019-01-24T09:05:04.233Z,73.90
2019-01-24T09:07:30.284Z,74.10
2019-01-24T09:09:56.343Z,74.10
2019-01-24T09:12:22.396Z,74.20
2019-01-24T09:14:48.433Z,74.20
2019-01-24T09:17:14.493Z,74.00
2019-01-24T09:19:40.523Z,74.60
2019-01-24T09:22:06.577Z,73.60
2019-01-24T09:24:32.644Z,73.40
2019-01-24T09:26:58.679Z,73.30
2019-01-24T09:29:24.711Z,74.00
2019-01-24T09:31:50.786Z,74.20
2019-01-24T09:34:16.827Z,74.20
2019-01-24T09:36:42.867Z,74.10
2019-01-24T09:39:08.925Z,74.30
2019-01-24T09:41:34.963Z,74.40
2019-01-24T09:44:01.019Z,74.40
2019-01-24T09:46:27.063Z,74.80
2019-01-24T09:48:53.099Z,75.60
2019-01-24T09:51:19.163Z,74.90
2019-01-24T09:53:45.218Z,74.70
2019-01-24T09:56:11.565Z,74.30
2019-01-24T09:58:37.625Z,74.30
2019-01-24T10:01:03.997Z,74.40
2019-01-24T10:03:30.036Z,74.50
2019-01-24T10:05:56.091Z,74.60
2019-01-24T10:08:22.143Z,74.70
2019-01-24T10:10:48.188Z,74.70
2019-01-24T10:13:14.347Z,74.80
2019-01-24T10:15:40.384Z,74.80
2019-01-24T10:18:06.540Z,74.90
2019-01-24T10:20:32.599Z,74.90
2019-01-24T10:22:58.639Z,74.80
2019-01-24T10:25:29.838Z,74.70
2019-01-24T10:27:56.000Z,73.70
2019-01-24T10:30:24.439Z,74.10
2019-01-24T10:32:51.179Z,73.60
2019-01-24T10:35:17.231Z,73.20
2019-01-24T10:37:43.272Z,73.70
2019-01-24T10:40:13.115Z,74.30
2019-01-24T10:42:39.172Z,73.20
2019-01-24T10:45:11.500Z,73.70
2019-01-24T10:47:37.535Z,74.00
2019-01-24T10:50:07.403Z,74.30
2019-01-24T10:52:33.478Z,74.40
2019-01-24T10:54:59.615Z,74.50
2019-01-24T10:57:25.672Z,74.30
2019-01-24T10:59:51.712Z,74.50
2019-01-24T11:02:17.753Z,74.30
2019-01-24T11:04:43.809Z,74.20
2019-01-24T11:07:09.844Z,74.00
2019-01-24T11:09:35.895Z,74.10
2019-01-24T11:12:02.152Z,73.80
2019-01-24T11:14:28.204Z,74.10
2019-01-24T11:16:54.245Z,74.20
2019-01-24T11:19:20.279Z,73.10
2019-01-24T11:21:46.342Z,73.70
2019-01-24T11:24:12.632Z,74.20
2019-01-24T11:26:38.671Z,73.30
2019-01-24T11:29:04.931Z,74.20
2019-01-24T11:31:31.075Z,73.60
2019-01-24T11:33:57.115Z,73.60
2019-01-24T11:36:23.309Z,73.80
2019-01-24T11:38:49.350Z,73.80
2019-01-24T11:41:15.383Z,73.90
2019-01-24T11:43:41.439Z,73.90
2019-01-24T11:46:07.471Z,72.90
2019-01-24T11:48:33.513Z,73.10
2019-01-24T11:50:59.911Z,73.20
2019-01-24T11:53:25.953Z,72.90
2019-01-24T11:55:51.988Z,73.20
2019-01-24T11:58:18.075Z,73.60
2019-01-24T12:00:46.267Z,73.70
2019-01-24T12:03:12.307Z,73.50
2019-01-24T12:05:38.359Z,73.70
2019-01-24T12:08:05.811Z,73.70
2019-01-24T12:10:31.858Z,73.40
2019-01-24T12:12:57.923Z,73.80
2019-01-24T12:15:28.697Z,74.20
2019-01-24T12:17:54.751Z,74.30
2019-01-24T12:20:22.835Z,74.30
2019-01-24T12:22:49.096Z,73.60
2019-01-24T12:25:15.317Z,72.90
2019-01-24T12:27:41.378Z,72.70
2019-01-24T12:30:13.791Z,72.60
2019-01-24T12:32:39.832Z,73.00
2019-01-24T12:35:07.692Z,73.70
2019-01-24T12:37:33.748Z,73.90
2019-01-24T12:39:59.792Z,73.70
2019-01-24T12:42:25.864Z,73.50
2019-01-24T12:44:51.900Z,73.00
2019-01-24T12:47:17.939Z,72.80
2019-01-24T12:49:43.995Z,73.30
2019-01-24T12:52:10.034Z,72.60
2019-01-24T12:54:36.102Z,69.70
2019-01-24T12:57:02.807Z,70.00
2019-01-24T12:59:28.857Z,70.30
2019-01-24T13:01:54.899Z,71.70
2019-01-24T13:04:20.953Z,72.60
2019-01-24T13:06:47.003Z,73.20
2019-01-24T13:09:13.043Z,73.50
2019-01-24T13:11:39.083Z,73.70
2019-01-24T13:14:05.155Z,74.00
2019-01-24T13:16:31.501Z,72.90
2019-01-24T13:18:57.562Z,73.60
2019-01-24T13:21:23.604Z,73.80
2019-01-24T13:23:49.662Z,73.60
2019-01-24T13:26:15.720Z,74.00
2019-01-24T13:28:42.025Z,73.20
2019-01-24T13:31:08.060Z,72.60
2019-01-24T13:33:34.147Z,72.70
2019-01-24T13:36:00.196Z,72.60
2019-01-24T13:38:26.227Z,72.40
2019-01-24T13:40:52.292Z,73.70
2019-01-24T13:43:18.329Z,73.40
2019-01-24T13:45:44.695Z,73.30
2019-01-24T13:48:10.854Z,73.50
2019-01-24T13:50:36.904Z,73.10
2019-01-24T13:53:03.667Z,73.20
2019-01-24T13:55:29.703Z,73.10
2019-01-24T13:57:55.810Z,73.20
2019-01-24T14:00:27.742Z,71.80
2019-01-24T14:03:06.815Z,71.30
2019-01-24T14:05:32.856Z,72.00
2019-01-24T14:07:58.932Z,72.20
2019-01-24T14:10:24.974Z,72.70
2019-01-24T14:12:51.019Z,72.80
2019-01-24T14:15:17.960Z,73.50
2019-01-24T14:17:44.217Z,73.50
2019-01-24T14:20:16.328Z,72.20
2019-01-24T14:22:42.674Z,70.90
2019-01-24T14:25:12.116Z,71.60
2019-01-24T14:27:38.174Z,72.30
2019-01-24T14:30:11.000Z,71.90
2019-01-24T14:32:37.048Z,72.00
2019-01-24T14:35:05.604Z,70.70
2019-01-24T14:37:31.646Z,71.80
2019-01-24T14:39:57.736Z,72.50
2019-01-24T14:42:23.779Z,72.60
2019-01-24T14:44:49.819Z,72.60
2019-01-24T14:47:15.874Z,72.80
2019-01-24T14:49:41.907Z,72.60
2019-01-24T14:52:07.947Z,73.00
2019-01-24T14:54:34.041Z,72.90
2019-01-24T14:57:00.147Z,73.10
2019-01-24T14:59:26.203Z,73.20
2019-01-24T15:01:53.000Z,73.20
2019-01-24T15:04:19.315Z,73.20
2019-01-24T15:06:45.355Z,73.60
2019-01-24T15:09:11.416Z,73.80
2019-01-24T15:11:37.456Z,73.90
2019-01-24T15:14:05.705Z,73.70
2019-01-24T15:16:32.001Z,73.20
2019-01-24T15:18:58.672Z,73.30
2019-01-24T15:21:24.715Z,72.60
2019-01-24T15:23:50.823Z,72.80
2019-01-24T15:26:17.104Z,73.20
2019-01-24T15:28:43.142Z,72.60
2019-01-24T15:31:09.192Z,73.20
2019-01-24T15:33:35.236Z,73.30
2019-01-24T15:36:01.275Z,72.40
2019-01-24T15:38:27.339Z,73.40
2019-01-24T15:40:53.371Z,73.00
2019-01-24T15:43:19.747Z,72.70
2019-01-24T15:45:45.800Z,72.70
2019-01-24T15:48:11.835Z,72.80
2019-01-24T15:50:37.871Z,72.70
2019-01-24T15:53:04.349Z,73.20
2019-01-24T15:55:30.686Z,73.20
2019-01-24T15:57:56.762Z,72.50
2019-01-24T16:00:28.889Z,73.20
2019-01-24T16:02:55.134Z,73.60
2019-01-24T16:05:21.504Z,73.20
2019-01-24T16:07:47.632Z,73.20
2019-01-24T16:10:15.891Z,72.90
2019-01-24T16:12:41.939Z,73.00
2019-01-24T16:15:13.991Z,73.10
2019-01-24T16:17:40.035Z,72.80
2019-01-24T16:20:12.639Z,73.00
2019-01-24T16:22:38.687Z,73.10
2019-01-24T16:25:08.254Z,72.90
2019-01-24T16:27:34.288Z,73.30
2019-01-24T16:30:00.349Z,73.20
2019-01-24T16:32:26.383Z,72.70
2019-01-24T16:34:52.423Z,72.70
2019-01-24T16:37:18.775Z,72.70
2019-01-24T16:39:44.815Z,72.90
2019-01-24T16:42:10.867Z,73.00
2019-01-24T16:44:36.903Z,72.90
2019-01-24T16:47:03.771Z,73.30
2019-01-24T16:49:29.816Z,73.20
2019-01-24T16:51:56.142Z,73.30
2019-01-24T16:54:22.186Z,73.30
2019-01-24T16:56:48.235Z,73.00
2019-01-24T16:59:14.285Z,72.90
2019-01-24T17:01:40.339Z,73.80
2019-01-24T17:04:06.380Z,72.90
2019-01-24T17:06:32.690Z,73.10
2019-01-24T17:08:58.743Z,73.10
2019-01-24T17:11:24.805Z,74.00
2019-01-24T17:13:50.845Z,73.50
2019-01-24T17:16:16.906Z,73.20
2019-01-24T17:18:42.956Z,73.00
2019-01-24T17:21:09.007Z,73.30
2019-01-24T17:23:35.365Z,73.00
2019-01-24T17:26:01.623Z,72.90
2019-01-24T17:28:27.660Z,73.20
2019-01-24T17:30:54.248Z,73.40
2019-01-24T17:33:20.291Z,73.10
2019-01-24T17:35:46.331Z,74.00
2019-01-24T17:38:12.380Z,72.80
2019-01-24T17:40:38.486Z,72.80
2019-01-24T17:43:04.867Z,72.80
2019-01-24T17:45:32.098Z,73.70
2019-01-24T17:47:58.372Z,72.90
2019-01-24T17:50:24.789Z,73.90
2019-01-24T17:52:51.324Z,73.20
2019-01-24T17:55:20.568Z,73.30
2019-01-24T17:57:46.815Z,73.30
2019-01-24T18:00:17.186Z,73.40
2019-01-24T18:02:43.619Z,72.90
2019-01-24T18:05:09.826Z,73.20
2019-01-24T18:07:35.933Z,73.30
2019-01-24T18:10:20.387Z,72.90
2019-01-24T18:12:46.454Z,72.80
2019-01-24T18:15:15.907Z,72.80
2019-01-24T18:17:42.048Z,73.00
2019-01-24T18:20:18.349Z,73.10
2019-01-24T18:22:42.673Z,73.30
2019-01-24T18:25:08.727Z,72.90
2019-01-24T18:27:34.791Z,72.90
2019-01-24T18:30:00.936Z,73.30
2019-01-24T18:32:27.320Z,73.10
2019-01-24T18:34:53.369Z,72.90
2019-01-24T18:37:19.390Z,72.90
2019-01-24T18:39:45.800Z,73.30
2019-01-24T18:42:11.839Z,73.00
2019-01-24T18:44:37.900Z,73.00
2019-01-24T18:47:03.939Z,73.10
2019-01-24T18:49:29.975Z,73.40
2019-01-24T18:51:56.040Z,73.40
2019-01-24T18:54:22.083Z,73.20
2019-01-24T18:56:48.305Z,73.10
2019-01-24T18:59:14.579Z,73.20
2019-01-24T19:01:40.639Z,72.80
2019-01-24T19:04:06.883Z,73.10
2019-01-24T19:06:33.021Z,73.40
2019-01-24T19:08:59.159Z,73.20
2019-01-24T19:11:25.215Z,73.20
2019-01-24T19:13:51.284Z,73.10
2019-01-24T19:16:17.323Z,73.20
2019-01-24T19:18:43.367Z,73.20
2019-01-24T19:21:09.536Z,73.30
2019-01-24T19:23:35.571Z,73.10
2019-01-24T19:26:01.612Z,73.50
2019-01-24T19:28:27.664Z,73.10
2019-01-24T19:30:53.700Z,73.10
2019-01-24T19:33:19.751Z,73.20
2019-01-24T19:35:45.805Z,73.00
2019-01-24T19:38:11.847Z,73.40
2019-01-24T19:40:37.900Z,73.40
2019-01-24T19:43:04.182Z,73.10
2019-01-24T19:45:30.220Z,73.60
2019-01-24T19:47:56.276Z,73.70
2019-01-24T19:50:24.620Z,73.30
2019-01-24T19:52:50.768Z,73.00
2019-01-24T19:55:17.122Z,73.40
2019-01-24T19:57:43.204Z,73.30
2019-01-24T20:00:15.325Z,73.40
2019-01-24T20:02:41.372Z,73.40
2019-01-24T20:05:10.437Z,73.40
2019-01-24T20:07:36.483Z,73.20
2019-01-24T20:10:06.393Z,73.40
2019-01-24T20:12:32.425Z,73.20
2019-01-24T20:14:58.473Z,73.50
2019-01-24T20:17:24.562Z,73.10
2019-01-24T20:19:50.888Z,73.40
2019-01-24T20:22:16.980Z,73.20
2019-01-24T20:24:43.182Z,73.20
2019-01-24T20:27:09.377Z,73.30
2019-01-24T20:29:35.528Z,73.20
2019-01-24T20:32:01.665Z,73.20
2019-01-24T20:34:27.836Z,73.10
2019-01-24T20:36:54.018Z,73.30
2019-01-24T20:39:20.224Z,73.40
2019-01-24T20:41:46.439Z,73.50
2019-01-24T20:44:12.618Z,73.60
2019-01-24T20:46:38.829Z,73.70
2019-01-24T20:49:05.021Z,73.70
2019-01-24T20:51:31.215Z,73.70
2019-01-24T20:53:57.410Z,73.70
2019-01-24T20:56:23.617Z,73.50
2019-01-24T20:58:49.822Z,73.50
2019-01-24T21:01:16.025Z,73.80
2019-01-24T21:03:42.226Z,73.50
2019-01-24T21:06:08.414Z,73.30
2019-01-24T21:08:34.620Z,73.50
2019-01-24T21:11:00.821Z,73.20
2019-01-24T21:13:26.993Z,73.50
2019-01-24T21:15:53.227Z,73.40
2019-01-24T21:18:19.766Z,73.40
2019-01-24T21:20:45.947Z,73.20
2019-01-24T21:23:12.154Z,73.30
2019-01-24T21:25:38.461Z,73.50
2019-01-24T21:28:04.749Z,73.30
2019-01-24T21:30:33.476Z,73.30
2019-01-24T21:32:59.663Z,73.50
2019-01-24T21:35:25.858Z,74.20
2019-01-24T21:37:52.054Z,74.00
2019-01-24T21:40:23.031Z,73.50
2019-01-24T21:42:49.622Z,73.50
2019-01-24T21:45:19.635Z,73.40
2019-01-24T21:47:45.821Z,73.80
2019-01-24T21:50:15.153Z,73.60
2019-01-24T21:52:41.357Z,73.60
2019-01-24T21:55:08.060Z,73.60
2019-01-24T21:57:34.343Z,74.10
2019-01-24T22:00:00.553Z,73.60
2019-01-24T22:02:26.749Z,73.40
2019-01-24T22:04:52.946Z,73.40
2019-01-24T22:07:19.149Z,73.60
2019-01-24T22:09:45.282Z,73.50
2019-01-24T22:12:11.473Z,73.50
2019-01-24T22:14:37.685Z,73.40
2019-01-24T22:17:03.874Z,73.50
2019-01-24T22:19:30.061Z,73.40
2019-01-24T22:21:56.277Z,73.60
2019-01-24T22:24:22.469Z,73.80
2019-01-24T22:26:48.659Z,73.80
2019-01-24T22:29:14.865Z,73.70
2019-01-24T22:31:41.070Z,73.70
2019-01-24T22:34:07.257Z,73.60
2019-01-24T22:36:33.478Z,73.40
2019-01-24T22:38:59.665Z,73.40
2019-01-24T22:41:25.862Z,73.60
2019-01-24T22:43:52.370Z,73.50
2019-01-24T22:46:18.909Z,73.60
2019-01-24T22:48:45.098Z,73.50
2019-01-24T22:51:11.297Z,73.50
2019-01-24T22:53:37.493Z,73.80
2019-01-24T22:56:04.030Z,73.70
2019-01-24T22:58:30.253Z,73.50
2019-01-24T23:01:04.160Z,73.80
2019-01-24T23:03:42.367Z,73.60
2019-01-24T23:06:08.761Z,73.70
2019-01-24T23:08:35.131Z,73.20
2019-01-24T23:11:01.329Z,73.50
2019-01-24T23:13:27.521Z,73.50
2019-01-24T23:15:53.819Z,73.20
2019-01-24T23:18:20.009Z,73.10
2019-01-24T23:20:46.348Z,73.20
2019-01-24T23:23:12.549Z,73.20
2019-01-24T23:25:39.033Z,73.30
2019-01-24T23:28:06.177Z,73.20
2019-01-24T23:30:33.197Z,73.50
2019-01-24T23:32:59.381Z,73.50
2019-01-24T23:35:26.429Z,73.40
2019-01-24T23:37:52.683Z,73.80
2019-01-24T23:40:18.828Z,73.50
2019-01-24T23:42:45.017Z,73.40
2019-01-24T23:45:11.329Z,73.60
2019-01-24T23:47:37.513Z,73.60
2019-01-24T23:50:06.429Z,73.30
2019-01-24T23:52:32.658Z,73.70
2019-01-24T23:54:58.843Z,73.60
2019-01-24T23:57:25.025Z,73.70
2019-01-24T23:59:51.237Z,73.90
